Time;durP1;ratioP1;P1;durP2;ratioP2;P2;SDS_P1;SDS_P2;PMS_P1;PMS_P2;Temp;Humidity;BMP_temperature;BMP_pressure;BME280_temperature;BME280_humidity;BME280_pressure;Samples;Min_cycle;Max_cycle;Signal;HPM_P1;HPM_P2
2022/04/13 00:02:07;;;;;;;4.10;2.50;;;;;;;;;;7372855;19;20404;-80
2022/04/13 00:04:37;;;;;;;2.90;2.13;;;;;;;;;;7378869;19;21391;-81
2022/04/13 00:07:11;;;;;;;7.60;2.90;;;;;;;;;;7378376;19;20411;-80
2022/04/13 00:09:43;;;;;;;6.13;2.97;;;;;;;;;;7372243;19;20408;-81
2022/04/13 00:12:13;;;;;;;3.17;2.40;;;;;;;;;;7376537;19;20499;-80
2022/04/13 00:14:43;;;;;;;4.00;2.50;;;;;;;;;;7376295;19;20392;-81
2022/04/13 00:17:18;;;;;;;4.10;2.50;;;;;;;;;;7379722;19;20406;-81
2022/04/13 00:19:47;;;;;;;2.90;2.13;;;;;;;;;;7377615;19;20408;-79
2022/04/13 00:22:23;;;;;;;3.03;2.37;;;;;;;;;;7377726;19;20420;-81
2022/04/13 00:24:55;;;;;;;4.20;2.60;;;;;;;;;;7374198;19;20454;-78
2022/04/13 00:27:27;;;;;;;3.10;2.10;;;;;;;;;;7375410;19;20436;-81
2022/04/13 00:29:57;;;;;;;4.87;2.50;;;;;;;;;;7372786;19;20492;-75
2022/04/13 00:32:32;;;;;;;3.50;2.10;;;;;;;;;;7378094;19;20420;-75
2022/04/13 00:35:05;;;;;;;7.70;2.87;;;;;;;;;;7375160;19;20412;-76
2022/04/13 00:37:40;;;;;;;3.50;2.33;;;;;;;;;;7371098;19;20409;-76
2022/04/13 00:40:12;;;;;;;2.70;2.13;;;;;;;;;;7368894;19;20428;-76
2022/04/13 00:42:42;;;;;;;3.73;2.50;;;;;;;;;;7375940;19;20433;-76
2022/04/13 00:45:14;;;;;;;3.03;2.47;;;;;;;;;;7372921;19;20979;-75
2022/04/13 00:47:46;;;;;;;3.93;2.03;;;;;;;;;;7370463;19;20753;-76
2022/04/13 00:50:18;;;;;;;5.37;2.27;;;;;;;;;;7373177;19;20384;-76
2022/04/13 00:52:53;;;;;;;3.50;2.37;;;;;;;;;;7377145;19;20416;-78
2022/04/13 00:55:26;;;;;;;3.37;2.63;;;;;;;;;;7379005;19;20400;-79
2022/04/13 00:57:57;;;;;;;3.67;2.63;;;;;;;;;;7376404;19;20396;-78
2022/04/13 01:00:29;;;;;;;2.60;2.40;;;;;;;;;;7375009;19;20467;-77
2022/04/13 01:03:00;;;;;;;1.77;1.67;;;;;;;;;;7377718;19;20416;-77
2022/04/13 01:05:32;;;;;;;2.97;2.53;;;;;;;;;;7381082;19;20418;-76
2022/04/13 01:08:08;;;;;;;4.83;2.37;;;;;;;;;;7386618;19;20472;-79
2022/04/13 01:10:39;;;;;;;4.07;2.40;;;;;;;;;;7381998;19;20408;-80
2022/04/13 01:13:11;;;;;;;3.37;3.07;;;;;;;;;;7377164;19;20376;-77
2022/04/13 01:15:44;;;;;;;3.87;2.50;;;;;;;;;;7375301;19;20497;-77
2022/04/13 01:18:18;;;;;;;2.90;2.60;;;;;;;;;;7380502;19;20364;-77
2022/04/13 01:20:56;;;;;;;4.93;2.40;;;;;;;;;;7377552;19;20392;-77
2022/04/13 01:23:30;;;;;;;3.20;2.50;;;;;;;;;;7376470;19;21035;-75
2022/04/13 01:26:00;;;;;;;3.23;2.13;;;;;;;;;;7380948;19;20811;-76
2022/04/13 01:28:32;;;;;;;3.57;2.30;;;;;;;;;;7372562;19;20534;-77
2022/04/13 01:31:01;;;;;;;3.63;2.47;;;;;;;;;;7369447;19;21180;-75
2022/04/13 01:33:32;;;;;;;8.20;5.50;;;;;;;;;;7377398;19;20450;-77
2022/04/13 01:36:05;;;;;;;15.67;8.90;;;;;;;;;;7374845;19;20384;-78
2022/04/13 01:38:39;;;;;;;8.23;5.50;;;;;;;;;;7371271;19;20857;-77
2022/04/13 01:41:09;;;;;;;7.03;4.60;;;;;;;;;;7373321;19;20428;-76
2022/04/13 01:43:41;;;;;;;4.93;4.00;;;;;;;;;;7377427;19;21385;-77
2022/04/13 01:46:13;;;;;;;3.70;3.40;;;;;;;;;;7371177;19;20437;-76
2022/04/13 01:48:44;;;;;;;5.13;3.70;;;;;;;;;;7378236;19;20380;-76
2022/04/13 01:51:14;;;;;;;3.20;2.80;;;;;;;;;;7371821;19;20408;-76
2022/04/13 01:53:51;;;;;;;4.23;3.83;;;;;;;;;;7367885;19;20404;-76
2022/04/13 01:56:21;;;;;;;4.93;2.80;;;;;;;;;;7377340;19;20693;-76
2022/04/13 01:58:52;;;;;;;4.90;2.80;;;;;;;;;;7373594;19;20399;-76
2022/04/13 02:01:22;;;;;;;2.67;2.20;;;;;;;;;;7367617;19;20400;-76
2022/04/13 02:03:52;;;;;;;4.03;2.80;;;;;;;;;;7373798;19;20439;-76
2022/04/13 02:06:24;;;;;;;2.27;1.90;;;;;;;;;;7374055;19;20748;-76
2022/04/13 02:08:56;;;;;;;3.33;2.70;;;;;;;;;;7370879;19;20521;-75
2022/04/13 02:11:25;;;;;;;4.27;3.10;;;;;;;;;;7372138;19;20472;-75
2022/04/13 02:14:00;;;;;;;2.67;2.47;;;;;;;;;;7368996;19;20456;-75
2022/04/13 02:16:29;;;;;;;4.47;2.57;;;;;;;;;;7374857;19;20400;-75
2022/04/13 02:18:59;;;;;;;3.70;2.60;;;;;;;;;;7372295;19;20472;-76
2022/04/13 02:21:28;;;;;;;3.23;2.77;;;;;;;;;;7372221;19;20401;-76
2022/04/13 02:24:00;;;;;;;7.30;2.50;;;;;;;;;;7375585;19;21124;-75
2022/04/13 02:26:32;;;;;;;4.17;2.40;;;;;;;;;;7376968;19;20415;-75
2022/04/13 02:29:02;;;;;;;3.60;2.80;;;;;;;;;;7375915;19;20434;-76
2022/04/13 02:31:32;;;;;;;3.40;2.47;;;;;;;;;;7372927;19;20432;-75
2022/04/13 02:34:04;;;;;;;4.83;2.83;;;;;;;;;;7376735;19;20503;-74
2022/04/13 02:36:56;;;;;;;2.80;2.40;;;;;;;;;;7377483;19;20415;-75
2022/04/13 02:39:33;;;;;;;4.27;2.90;;;;;;;;;;7373048;19;20445;-78
2022/04/13 02:42:05;;;;;;;4.30;2.50;;;;;;;;;;7374350;19;21200;-78
2022/04/13 02:44:40;;;;;;;4.30;2.87;;;;;;;;;;7376298;19;20500;-78
2022/04/13 02:47:12;;;;;;;3.67;2.40;;;;;;;;;;7378288;19;20416;-79
2022/04/13 02:49:46;;;;;;;6.77;2.67;;;;;;;;;;7374547;19;20411;-78
2022/04/13 02:52:15;;;;;;;3.70;3.00;;;;;;;;;;7378152;19;20408;-78
2022/04/13 02:54:48;;;;;;;2.70;2.27;;;;;;;;;;7374466;19;20476;-79
2022/04/13 02:57:20;;;;;;;3.60;2.60;;;;;;;;;;7375022;19;20399;-79
2022/04/13 02:59:49;;;;;;;2.30;2.10;;;;;;;;;;7376069;19;20395;-78
2022/04/13 03:02:19;;;;;;;3.13;2.83;;;;;;;;;;7376116;19;20488;-79
2022/04/13 03:04:49;;;;;;;3.40;2.40;;;;;;;;;;7375063;19;20394;-78
2022/04/13 03:07:22;;;;;;;4.50;2.97;;;;;;;;;;7374265;19;20404;-78
2022/04/13 03:09:57;;;;;;;3.13;2.77;;;;;;;;;;7373023;19;20403;-80
2022/04/13 03:12:29;;;;;;;6.20;2.80;;;;;;;;;;7375909;19;20411;-79
2022/04/13 03:15:28;;;;;;;4.70;2.83;;;;;;;;;;7367008;19;20408;-75
2022/04/13 03:17:57;;;;;;;5.57;2.57;;;;;;;;;;7373612;19;20419;-75
2022/04/13 03:20:27;;;;;;;4.30;2.90;;;;;;;;;;7371940;19;20388;-75
2022/04/13 03:22:56;;;;;;;4.10;2.90;;;;;;;;;;7373191;19;20401;-75
2022/04/13 03:25:32;;;;;;;4.97;2.90;;;;;;;;;;7366969;19;20400;-75
2022/04/13 03:28:04;;;;;;;5.07;3.00;;;;;;;;;;7372378;19;20981;-75
2022/04/13 03:31:09;;;;;;;5.20;2.60;;;;;;;;;;7363267;19;20424;-74
2022/04/13 03:33:41;;;;;;;2.33;2.13;;;;;;;;;;7370512;19;21213;-74
2022/04/13 03:36:10;;;;;;;3.43;2.30;;;;;;;;;;7369508;19;20493;-75
2022/04/13 03:38:45;;;;;;;3.93;2.60;;;;;;;;;;7371757;19;20404;-74
2022/04/13 03:41:18;;;;;;;7.07;2.90;;;;;;;;;;7368091;19;20402;-74
2022/04/13 03:43:50;;;;;;;3.27;2.97;;;;;;;;;;7368924;19;20370;-74
2022/04/13 03:46:19;;;;;;;3.60;3.00;;;;;;;;;;7368384;19;20421;-74
2022/04/13 03:48:51;;;;;;;7.70;3.03;;;;;;;;;;7371003;19;20424;-75
2022/04/13 03:51:23;;;;;;;3.33;3.03;;;;;;;;;;7369987;19;20399;-79
2022/04/13 03:53:52;;;;;;;5.63;3.07;;;;;;;;;;7371479;19;20416;-78
2022/04/13 03:56:28;;;;;;;3.73;2.80;;;;;;;;;;7370587;19;20538;-79
2022/04/13 03:58:58;;;;;;;7.57;3.10;;;;;;;;;;7372446;19;20432;-79
2022/04/13 04:01:28;;;;;;;4.27;2.60;;;;;;;;;;7366501;19;21236;-79
2022/04/13 04:03:58;;;;;;;5.20;3.03;;;;;;;;;;7369718;19;20384;-80
2022/04/13 04:06:27;;;;;;;8.20;3.10;;;;;;;;;;7370178;19;20495;-79
2022/04/13 04:08:59;;;;;;;8.50;2.63;;;;;;;;;;7369031;19;20450;-78
2022/04/13 04:11:56;;;;;;;5.27;3.50;;;;;;;;;;7372529;19;20424;-79
2022/04/13 04:14:28;;;;;;;3.43;2.70;;;;;;;;;;7369490;19;20384;-79
2022/04/13 04:16:58;;;;;;;3.83;2.83;;;;;;;;;;7373516;19;20408;-79
2022/04/13 04:19:30;;;;;;;6.17;3.47;;;;;;;;;;7372369;19;20442;-75
2022/04/13 04:22:04;;;;;;;5.20;3.47;;;;;;;;;;7381281;19;20399;-75
2022/04/13 04:24:34;;;;;;;4.40;2.90;;;;;;;;;;7377206;19;20491;-75
2022/04/13 04:27:06;;;;;;;3.47;2.90;;;;;;;;;;7380751;19;20541;-75
2022/04/13 04:29:35;;;;;;;6.23;4.20;;;;;;;;;;7380149;19;20408;-76
2022/04/13 04:32:08;;;;;;;7.70;4.90;;;;;;;;;;7383959;19;20407;-78
2022/04/13 04:34:38;;;;;;;6.17;3.63;;;;;;;;;;7383740;19;20359;-77
2022/04/13 04:37:08;;;;;;;6.80;4.60;;;;;;;;;;7384408;19;20417;-77
2022/04/13 04:39:40;;;;;;;6.80;4.73;;;;;;;;;;7385451;19;20438;-75
2022/04/13 04:42:15;;;;;;;7.53;4.47;;;;;;;;;;7382265;19;21040;-75
2022/04/13 04:44:47;;;;;;;8.33;4.40;;;;;;;;;;7381122;19;20396;-75
2022/04/13 04:47:19;;;;;;;8.83;4.50;;;;;;;;;;7376478;19;20781;-76
2022/04/13 04:49:49;;;;;;;9.00;4.27;;;;;;;;;;7374886;19;20403;-76
2022/04/13 04:52:18;;;;;;;5.80;4.00;;;;;;;;;;7378703;19;20430;-75
2022/04/13 04:54:48;;;;;;;8.40;4.00;;;;;;;;;;7380341;19;20509;-76
2022/04/13 04:57:20;;;;;;;5.73;3.30;;;;;;;;;;7382443;19;20766;-76
2022/04/13 04:59:52;;;;;;;7.30;3.87;;;;;;;;;;7380868;19;20721;-76
2022/04/13 05:02:22;;;;;;;5.87;4.10;;;;;;;;;;7373635;19;21614;-75
2022/04/13 05:04:56;;;;;;;7.70;4.20;;;;;;;;;;7375897;19;20446;-75
2022/04/13 05:07:28;;;;;;;3.97;3.57;;;;;;;;;;7376923;19;20783;-75
2022/04/13 05:10:00;;;;;;;4.80;3.20;;;;;;;;;;7376750;19;20980;-75
2022/04/13 05:12:33;;;;;;;7.67;3.80;;;;;;;;;;7380319;19;20400;-75
2022/04/13 05:15:06;;;;;;;6.17;3.20;;;;;;;;;;7377844;19;20968;-75
2022/04/13 05:17:38;;;;;;;3.90;2.83;;;;;;;;;;7370891;19;20762;-75
2022/04/13 05:20:08;;;;;;;4.83;3.00;;;;;;;;;;7372552;19;20411;-75
2022/04/13 05:22:40;;;;;;;6.43;2.67;;;;;;;;;;7366894;19;20408;-75
2022/04/13 05:25:15;;;;;;;6.30;2.93;;;;;;;;;;7363891;19;20428;-75
2022/04/13 05:27:48;;;;;;;3.57;3.27;;;;;;;;;;7371060;19;20442;-75
2022/04/13 05:30:20;;;;;;;5.93;2.67;;;;;;;;;;7363303;19;20427;-75
2022/04/13 05:32:56;;;;;;;3.60;2.93;;;;;;;;;;7371136;19;20431;-75
2022/04/13 05:35:30;;;;;;;3.83;2.70;;;;;;;;;;7378657;19;20945;-74
2022/04/13 05:38:02;;;;;;;4.63;2.37;;;;;;;;;;7368132;19;20466;-74
2022/04/13 05:40:31;;;;;;;8.10;2.90;;;;;;;;;;7371231;19;20444;-74
2022/04/13 05:43:03;;;;;;;4.33;2.73;;;;;;;;;;7364004;19;20397;-74
2022/04/13 05:45:53;;;;;;;2.50;2.30;;;;;;;;;;7363087;19;20784;-77
2022/04/13 05:48:23;;;;;;;3.50;3.10;;;;;;;;;;7367078;19;20408;-77
2022/04/13 05:50:52;;;;;;;3.70;2.60;;;;;;;;;;7372646;19;20425;-80
2022/04/13 05:53:25;;;;;;;10.87;4.50;;;;;;;;;;7376496;19;20419;-80
2022/04/13 05:55:58;;;;;;;7.30;2.90;;;;;;;;;;7376558;19;20419;-80
2022/04/13 05:58:31;;;;;;;4.60;2.83;;;;;;;;;;7377140;19;21292;-80
2022/04/13 06:01:06;;;;;;;4.17;2.90;;;;;;;;;;7375906;19;20991;-80
2022/04/13 06:03:38;;;;;;;3.10;2.67;;;;;;;;;;7372761;19;20430;-80
2022/04/13 06:06:08;;;;;;;4.10;2.90;;;;;;;;;;7365083;19;20408;-80
2022/04/13 06:08:37;;;;;;;6.97;3.57;;;;;;;;;;7366517;19;20417;-80
2022/04/13 06:11:09;;;;;;;5.57;3.67;;;;;;;;;;7375602;19;20416;-80
2022/04/13 06:13:41;;;;;;;9.53;3.57;;;;;;;;;;7374574;19;20428;-79
2022/04/13 06:16:13;;;;;;;4.70;2.83;;;;;;;;;;7377351;19;20947;-80
2022/04/13 06:18:45;;;;;;;7.60;3.73;;;;;;;;;;7375821;19;20404;-80
2022/04/13 06:21:17;;;;;;;5.70;4.33;;;;;;;;;;7368509;19;20499;-81
2022/04/13 06:23:49;;;;;;;8.57;4.20;;;;;;;;;;7361021;19;20420;-78
2022/04/13 06:26:23;;;;;;;8.23;3.97;;;;;;;;;;7377782;19;20495;-80
2022/04/13 06:28:58;;;;;;;9.43;3.90;;;;;;;;;;7371698;19;20411;-80
2022/04/13 06:31:33;;;;;;;6.90;4.03;;;;;;;;;;7362250;19;20430;-80
2022/04/13 06:34:03;;;;;;;7.37;4.27;;;;;;;;;;7372044;19;20421;-80
2022/04/13 06:36:34;;;;;;;11.43;5.53;;;;;;;;;;7370314;19;20425;-80
2022/04/13 06:39:04;;;;;;;5.33;4.07;;;;;;;;;;7376726;19;20400;-80
2022/04/13 06:41:36;;;;;;;5.47;3.93;;;;;;;;;;7375756;19;20405;-81
2022/04/13 06:44:13;;;;;;;6.73;4.07;;;;;;;;;;7374673;19;20426;-81
2022/04/13 06:46:46;;;;;;;5.17;3.63;;;;;;;;;;7375059;19;20431;-79
2022/04/13 06:49:15;;;;;;;6.27;4.63;;;;;;;;;;7369491;19;20408;-79
2022/04/13 06:51:47;;;;;;;8.73;4.50;;;;;;;;;;7376061;19;20378;-78
2022/04/13 06:54:19;;;;;;;7.83;4.60;;;;;;;;;;7365067;19;20368;-79
2022/04/13 06:56:49;;;;;;;5.73;4.63;;;;;;;;;;7370964;19;21170;-79
2022/04/13 06:59:23;;;;;;;5.50;4.30;;;;;;;;;;7367517;19;20413;-79
2022/04/13 07:01:52;;;;;;;6.70;4.20;;;;;;;;;;7374865;19;20456;-76
2022/04/13 07:04:27;;;;;;;7.43;4.47;;;;;;;;;;7369521;19;21015;-77
2022/04/13 07:06:57;;;;;;;6.77;4.27;;;;;;;;;;7371822;19;20798;-77
2022/04/13 07:10:02;;;;;;;8.63;5.30;;;;;;;;;;7359328;19;20541;-77
2022/04/13 07:12:36;;;;;;;11.43;5.03;;;;;;;;;;7365821;19;20416;-76
2022/04/13 07:15:09;;;;;;;7.73;4.40;;;;;;;;;;7364521;19;20420;-77
2022/04/13 07:17:41;;;;;;;6.80;4.73;;;;;;;;;;7358452;19;20402;-76
2022/04/13 07:20:14;;;;;;;6.40;4.53;;;;;;;;;;7361901;19;22157;-76
2022/04/13 07:22:47;;;;;;;8.70;4.90;;;;;;;;;;7368082;19;20387;-77
2022/04/13 07:25:19;;;;;;;6.60;4.90;;;;;;;;;;7361440;19;20423;-77
2022/04/13 07:27:52;;;;;;;10.40;5.07;;;;;;;;;;7351996;19;20403;-74
2022/04/13 07:30:24;;;;;;;5.50;4.90;;;;;;;;;;7366971;19;20432;-75
2022/04/13 07:32:55;;;;;;;5.83;4.83;;;;;;;;;;7375516;19;20427;-76
2022/04/13 07:35:24;;;;;;;9.50;4.83;;;;;;;;;;7372540;19;20414;-76
2022/04/13 07:37:56;;;;;;;5.63;5.10;;;;;;;;;;7373581;19;20493;-76
2022/04/13 07:40:26;;;;;;;10.07;5.90;;;;;;;;;;7374521;19;20404;-76
2022/04/13 07:43:00;;;;;;;10.73;5.90;;;;;;;;;;7374803;19;20415;-77
2022/04/13 07:45:39;;;;;;;9.90;5.47;;;;;;;;;;7372751;19;21361;-76
2022/04/13 07:48:22;;;;;;;7.50;4.90;;;;;;;;;;7372163;19;21033;-76
2022/04/13 07:50:53;;;;;;;8.13;4.97;;;;;;;;;;7375049;19;20408;-76
2022/04/13 07:53:43;;;;;;;8.23;5.63;;;;;;;;;;7395772;19;20458;-76
2022/04/13 07:56:13;;;;;;;5.80;4.73;;;;;;;;;;7418872;19;20998;-76
2022/04/13 07:58:42;;;;;;;6.23;5.27;;;;;;;;;;7416987;19;20387;-76
2022/04/13 08:01:14;;;;;;;7.73;5.13;;;;;;;;;;7411147;19;20408;-78
2022/04/13 08:03:44;;;;;;;7.77;5.13;;;;;;;;;;7406623;19;20432;-78
2022/04/13 08:06:16;;;;;;;8.37;5.03;;;;;;;;;;7409011;19;20395;-78
2022/04/13 08:08:48;;;;;;;7.43;6.20;;;;;;;;;;7402477;19;20425;-77
2022/04/13 08:11:20;;;;;;;7.90;5.33;;;;;;;;;;7403495;19;20404;-78
2022/04/13 08:13:49;;;;;;;6.43;5.67;;;;;;;;;;7399925;19;20400;-78
2022/04/13 08:16:24;;;;;;;9.30;5.67;;;;;;;;;;7399677;19;20438;-78
2022/04/13 08:18:53;;;;;;;9.33;6.33;;;;;;;;;;7401981;19;20926;-78
2022/04/13 08:21:26;;;;;;;6.93;5.20;;;;;;;;;;7401590;19;20938;-78
2022/04/13 08:23:55;;;;;;;7.30;4.90;;;;;;;;;;7406029;19;20392;-78
2022/04/13 08:26:27;;;;;;;9.07;5.30;;;;;;;;;;7394304;19;20447;-78
2022/04/13 08:29:00;;;;;;;12.20;5.10;;;;;;;;;;7384743;19;20395;-78
2022/04/13 08:31:34;;;;;;;9.13;5.10;;;;;;;;;;7385689;19;20430;-79
2022/04/13 08:34:04;;;;;;;12.80;6.17;;;;;;;;;;7383099;19;20978;-78
2022/04/13 08:36:39;;;;;;;16.40;5.30;;;;;;;;;;7385250;19;20408;-80
2022/04/13 08:39:16;;;;;;;10.13;5.00;;;;;;;;;;7382181;19;20408;-78
2022/04/13 08:41:51;;;;;;;7.90;3.73;;;;;;;;;;7384488;19;20459;-78
2022/04/13 08:44:53;;;;;;;17.43;5.20;;;;;;;;;;7380602;19;20435;-77
2022/04/13 08:47:28;;;;;;;20.93;5.20;;;;;;;;;;7381602;19;20392;-78
2022/04/13 08:50:00;;;;;;;35.13;6.27;;;;;;;;;;7381893;19;20415;-78
2022/04/13 08:52:32;;;;;;;13.80;3.83;;;;;;;;;;7380309;19;20443;-80
2022/04/13 08:55:05;;;;;;;5.83;3.60;;;;;;;;;;7382128;19;21036;-80
2022/04/13 08:57:39;;;;;;;7.43;3.83;;;;;;;;;;7382761;19;20789;-79
2022/04/13 09:00:13;;;;;;;10.13;3.70;;;;;;;;;;7384315;19;20423;-78
2022/04/13 09:03:03;;;;;;;38.53;8.83;;;;;;;;;;7382788;19;20435;-78
2022/04/13 09:05:35;;;;;;;8.33;3.30;;;;;;;;;;7376389;19;20488;-78
2022/04/13 09:08:32;;;;;;;6.80;3.00;;;;;;;;;;7379696;19;20432;-79
2022/04/13 09:11:07;;;;;;;12.03;3.87;;;;;;;;;;7384983;19;20419;-78
2022/04/13 09:13:40;;;;;;;6.57;3.30;;;;;;;;;;7384697;19;20383;-78
2022/04/13 09:16:12;;;;;;;3.80;2.20;;;;;;;;;;7380867;19;20445;-78
2022/04/13 09:18:42;;;;;;;4.83;2.67;;;;;;;;;;7381276;19;21236;-78
2022/04/13 09:21:20;;;;;;;1.80;1.47;;;;;;;;;;7382378;19;20415;-78
2022/04/13 09:23:50;;;;;;;5.37;2.63;;;;;;;;;;7382753;19;20380;-78
2022/04/13 09:26:21;;;;;;;3.40;1.97;;;;;;;;;;7380493;19;20435;-78
2022/04/13 09:28:50;;;;;;;4.10;2.50;;;;;;;;;;7374523;19;20407;-78
2022/04/13 09:31:23;;;;;;;3.17;1.80;;;;;;;;;;7371034;19;20437;-78
2022/04/13 09:33:53;;;;;;;4.37;2.50;;;;;;;;;;7379974;19;20416;-78
2022/04/13 09:36:31;;;;;;;8.50;2.27;;;;;;;;;;7379696;19;20449;-78
2022/04/13 09:39:02;;;;;;;3.00;2.20;;;;;;;;;;7382730;19;20483;-78
2022/04/13 09:41:39;;;;;;;4.90;2.67;;;;;;;;;;7382120;19;20380;-79
2022/04/13 09:44:18;;;;;;;4.23;2.20;;;;;;;;;;7380388;19;20952;-78
2022/04/13 09:46:52;;;;;;;5.97;2.40;;;;;;;;;;7378102;19;20597;-78
2022/04/13 09:49:26;;;;;;;4.70;2.90;;;;;;;;;;7375405;19;20414;-78
2022/04/13 09:51:59;;;;;;;3.10;2.47;;;;;;;;;;7379748;19;20376;-79
2022/04/13 09:54:29;;;;;;;4.10;2.73;;;;;;;;;;7377872;19;20420;-79
2022/04/13 09:57:01;;;;;;;9.20;3.47;;;;;;;;;;7375418;19;20432;-78
2022/04/13 09:59:33;;;;;;;5.67;2.90;;;;;;;;;;7372412;19;20407;-79
2022/04/13 10:02:03;;;;;;;6.57;2.87;;;;;;;;;;7377162;19;20400;-78
2022/04/13 10:04:39;;;;;;;5.00;2.57;;;;;;;;;;7377198;19;21063;-79
2022/04/13 10:07:19;;;;;;;4.77;2.00;;;;;;;;;;7379029;19;20421;-79
2022/04/13 10:09:49;;;;;;;4.40;2.20;;;;;;;;;;7380400;19;20408;-79
2022/04/13 10:12:18;;;;;;;5.30;2.70;;;;;;;;;;7378627;19;20408;-79
2022/04/13 10:14:50;;;;;;;3.10;2.10;;;;;;;;;;7379247;19;20907;-79
2022/04/13 10:17:22;;;;;;;3.33;2.00;;;;;;;;;;7378393;19;20963;-78
2022/04/13 10:19:57;;;;;;;5.60;2.97;;;;;;;;;;7377393;19;20912;-79
2022/04/13 10:22:32;;;;;;;5.53;2.70;;;;;;;;;;7377253;19;20419;-78
2022/04/13 10:25:16;;;;;;;4.70;2.07;;;;;;;;;;7377790;19;20386;-79
2022/04/13 10:27:55;;;;;;;5.30;2.43;;;;;;;;;;7374723;19;20416;-78
2022/04/13 10:30:28;;;;;;;5.73;2.20;;;;;;;;;;7374656;19;20503;-79
2022/04/13 10:33:01;;;;;;;4.83;2.50;;;;;;;;;;7379933;19;20423;-79
2022/04/13 10:35:54;;;;;;;3.70;2.13;;;;;;;;;;7373720;19;20412;-79
2022/04/13 10:38:28;;;;;;;2.90;2.33;;;;;;;;;;7378161;19;21034;-79
2022/04/13 10:41:00;;;;;;;3.27;2.37;;;;;;;;;;7380638;19;20415;-79
2022/04/13 10:43:31;;;;;;;5.13;3.17;;;;;;;;;;7376095;19;20396;-79
2022/04/13 10:46:01;;;;;;;7.50;3.10;;;;;;;;;;7374257;19;20454;-79
2022/04/13 10:48:33;;;;;;;9.40;3.80;;;;;;;;;;7376242;19;21162;-79
2022/04/13 10:51:08;;;;;;;5.40;3.53;;;;;;;;;;7377521;19;20408;-79
2022/04/13 10:53:46;;;;;;;7.83;4.83;;;;;;;;;;7407768;19;20412;-80
2022/04/13 10:56:18;;;;;;;2.93;2.60;;;;;;;;;;7412869;19;20420;-80
2022/04/13 10:58:54;;;;;;;5.30;4.03;;;;;;;;;;7415110;19;20392;-80
2022/04/13 11:01:47;;;;;;;8.30;3.30;;;;;;;;;;7425145;19;20395;-80
2022/04/13 11:04:29;;;;;;;8.63;4.27;;;;;;;;;;7430694;19;20428;-80
2022/04/13 11:07:03;;;;;;;4.37;2.67;;;;;;;;;;7378494;19;20368;-79
2022/04/13 11:09:40;;;;;;;5.20;3.27;;;;;;;;;;7376821;19;21184;-79
2022/04/13 11:12:14;;;;;;;10.23;3.07;;;;;;;;;;7380221;19;20446;-80
2022/04/13 11:14:49;;;;;;;4.50;2.60;;;;;;;;;;7378734;19;20964;-80
2022/04/13 11:17:26;;;;;;;6.17;2.83;;;;;;;;;;7378124;19;21290;-79
2022/04/13 11:20:13;;;;;;;6.00;2.97;;;;;;;;;;7377894;19;21226;-80
2022/04/13 11:22:42;;;;;;;5.00;2.50;;;;;;;;;;7377037;19;20911;-80
2022/04/13 11:25:30;;;;;;;8.60;2.50;;;;;;;;;;7374839;19;21152;-80
2022/04/13 11:28:04;;;;;;;4.93;2.23;;;;;;;;;;7375958;19;20415;-79
2022/04/13 11:31:01;;;;;;;5.37;2.47;;;;;;;;;;7376200;19;20427;-79
2022/04/13 11:33:44;;;;;;;4.27;2.47;;;;;;;;;;7372494;19;20411;-80
2022/04/13 11:36:14;;;;;;;6.10;2.60;;;;;;;;;;7360640;19;21549;-80
2022/04/13 11:38:49;;;;;;;6.60;4.07;;;;;;;;;;7375868;19;20404;-80
2022/04/13 11:41:19;;;;;;;6.77;5.10;;;;;;;;;;7372116;19;21132;-84
2022/04/13 11:43:54;;;;;;;6.03;2.60;;;;;;;;;;7374303;19;21041;-81
2022/04/13 11:46:39;;;;;;;5.87;2.43;;;;;;;;;;7364196;19;20450;-83
2022/04/13 11:49:11;;;;;;;3.73;2.67;;;;;;;;;;7371366;19;21287;-80
2022/04/13 11:51:43;;;;;;;3.13;2.00;;;;;;;;;;7372605;19;21016;-79
2022/04/13 11:54:16;;;;;;;18.70;3.17;;;;;;;;;;7375115;19;20415;-78
2022/04/13 11:56:55;;;;;;;4.87;2.67;;;;;;;;;;7367886;19;21306;-76
2022/04/13 11:59:39;;;;;;;7.27;2.47;;;;;;;;;;7369517;19;20406;-78
2022/04/13 12:02:11;;;;;;;4.20;2.27;;;;;;;;;;7369444;19;20860;-76
2022/04/13 12:05:07;;;;;;;3.47;1.90;;;;;;;;;;7365920;19;20405;-76
2022/04/13 12:07:40;;;;;;;6.87;1.93;;;;;;;;;;7364251;19;20407;-77
2022/04/13 12:10:13;;;;;;;9.37;2.27;;;;;;;;;;7373547;19;20408;-78
2022/04/13 12:12:53;;;;;;;3.30;1.70;;;;;;;;;;7380710;19;20380;-78
2022/04/13 12:15:25;;;;;;;2.70;1.83;;;;;;;;;;7382562;19;20388;-77
2022/04/13 12:18:15;;;;;;;8.20;1.77;;;;;;;;;;7394442;19;20416;-77
2022/04/13 12:21:12;;;;;;;9.93;2.43;;;;;;;;;;7373758;19;20424;-77
2022/04/13 12:23:44;;;;;;;5.83;2.30;;;;;;;;;;7370901;19;20412;-77
2022/04/13 12:26:35;;;;;;;5.30;2.73;;;;;;;;;;7379045;19;20375;-76
2022/04/13 12:29:05;;;;;;;3.73;2.20;;;;;;;;;;7374471;19;20751;-78
2022/04/13 12:31:46;;;;;;;4.40;2.13;;;;;;;;;;7382784;19;20420;-76
2022/04/13 12:34:24;;;;;;;7.37;1.93;;;;;;;;;;7387384;19;20968;-77
2022/04/13 12:36:54;;;;;;;2.87;1.87;;;;;;;;;;7382909;19;20479;-78
2022/04/13 12:39:27;;;;;;;2.13;1.63;;;;;;;;;;7372161;19;20415;-77
2022/04/13 12:41:59;;;;;;;3.47;1.93;;;;;;;;;;7379511;19;20420;-77
2022/04/13 12:44:29;;;;;;;3.70;2.00;;;;;;;;;;7378221;19;20432;-77
2022/04/13 12:47:07;;;;;;;4.00;1.70;;;;;;;;;;7376639;19;21038;-75
2022/04/13 12:49:42;;;;;;;5.27;2.10;;;;;;;;;;7376890;19;20775;-77
2022/04/13 12:52:14;;;;;;;3.27;2.10;;;;;;;;;;7381483;19;20403;-78
2022/04/13 12:54:48;;;;;;;5.30;2.40;;;;;;;;;;7376596;19;20395;-75
2022/04/13 12:57:18;;;;;;;5.40;2.23;;;;;;;;;;7377901;19;20416;-75
2022/04/13 12:59:47;;;;;;;4.30;1.63;;;;;;;;;;7375014;19;20423;-74
2022/04/13 13:02:21;;;;;;;2.97;2.30;;;;;;;;;;7375775;19;20416;-75
2022/04/13 13:04:57;;;;;;;4.30;1.90;;;;;;;;;;7370584;19;20372;-76
2022/04/13 13:07:39;;;;;;;5.00;2.13;;;;;;;;;;7373226;19;20412;-75
2022/04/13 13:10:11;;;;;;;6.47;1.60;;;;;;;;;;7374620;19;20474;-77
2022/04/13 13:12:41;;;;;;;2.83;1.80;;;;;;;;;;7378799;19;20408;-76
2022/04/13 13:15:17;;;;;;;3.33;2.10;;;;;;;;;;7371762;19;20417;-76
2022/04/13 13:17:48;;;;;;;8.23;2.50;;;;;;;;;;7346682;19;20466;-76
2022/04/13 13:20:21;;;;;;;5.80;2.00;;;;;;;;;;7375346;19;21019;-76
2022/04/13 13:22:55;;;;;;;6.87;1.83;;;;;;;;;;7371479;19;20524;-75
2022/04/13 13:25:25;;;;;;;3.00;1.80;;;;;;;;;;7375103;19;21132;-76
2022/04/13 13:27:58;;;;;;;4.00;1.80;;;;;;;;;;7365666;19;20392;-76
2022/04/13 13:30:30;;;;;;;4.17;1.90;;;;;;;;;;7372367;19;21235;-78
2022/04/13 13:33:00;;;;;;;2.83;1.90;;;;;;;;;;7371535;19;21273;-77
2022/04/13 13:35:33;;;;;;;3.57;1.97;;;;;;;;;;7375324;19;20404;-79
2022/04/13 13:38:07;;;;;;;5.03;1.93;;;;;;;;;;7370971;19;20404;-77
2022/04/13 13:40:47;;;;;;;5.23;2.07;;;;;;;;;;7370775;19;20486;-78
2022/04/13 13:43:35;;;;;;;5.10;1.90;;;;;;;;;;7372859;19;20383;-79
2022/04/13 13:46:16;;;;;;;4.50;2.37;;;;;;;;;;7376376;19;20380;-78
2022/04/13 13:48:47;;;;;;;5.67;1.70;;;;;;;;;;7360385;19;20391;-76
2022/04/13 13:51:20;;;;;;;3.50;1.83;;;;;;;;;;7356013;19;20412;-78
2022/04/13 13:53:50;;;;;;;2.40;1.70;;;;;;;;;;7360336;19;21344;-76
2022/04/13 13:56:21;;;;;;;3.87;1.90;;;;;;;;;;7351313;19;20392;-79
2022/04/13 13:58:50;;;;;;;4.30;2.30;;;;;;;;;;7360428;19;20380;-76
2022/04/13 14:01:20;;;;;;;8.43;2.10;;;;;;;;;;7366827;19;20376;-76
2022/04/13 14:03:50;;;;;;;5.00;2.53;;;;;;;;;;7369761;19;20428;-76
2022/04/13 14:06:24;;;;;;;4.90;2.20;;;;;;;;;;7366495;19;20416;-80
2022/04/13 14:08:57;;;;;;;5.50;2.70;;;;;;;;;;7367959;19;20380;-75
2022/04/13 14:11:29;;;;;;;4.40;2.10;;;;;;;;;;7369923;19;20953;-84
2022/04/13 14:14:01;;;;;;;9.27;3.73;;;;;;;;;;7376741;19;20432;-78
2022/04/13 14:16:33;;;;;;;28.30;13.07;;;;;;;;;;7367521;19;20996;-76
2022/04/13 14:19:02;;;;;;;13.23;4.67;;;;;;;;;;7364994;19;20409;-79
2022/04/13 14:21:37;;;;;;;17.67;6.80;;;;;;;;;;7371994;19;20450;-76
2022/04/13 14:24:10;;;;;;;11.20;4.63;;;;;;;;;;7370734;19;21534;-78
2022/04/13 14:26:42;;;;;;;5.17;2.23;;;;;;;;;;7366181;19;20435;-78
2022/04/13 14:29:12;;;;;;;4.73;1.90;;;;;;;;;;7366974;19;20416;-79
2022/04/13 14:31:41;;;;;;;7.40;2.70;;;;;;;;;;7368687;19;20412;-78
2022/04/13 14:34:11;;;;;;;4.57;2.10;;;;;;;;;;7375184;19;20424;-77
2022/04/13 14:36:45;;;;;;;3.10;2.17;;;;;;;;;;7373513;19;20368;-78
2022/04/13 14:39:15;;;;;;;7.50;2.53;;;;;;;;;;7368508;19;21120;-74
2022/04/13 14:41:45;;;;;;;6.17;2.53;;;;;;;;;;7369922;19;20376;-76
2022/04/13 14:44:16;;;;;;;2.67;2.20;;;;;;;;;;7367818;19;20504;-75
2022/04/13 14:46:49;;;;;;;4.00;2.10;;;;;;;;;;7364827;19;20380;-76
2022/04/13 14:49:22;;;;;;;5.73;2.23;;;;;;;;;;7352992;19;20412;-84
2022/04/13 14:51:54;;;;;;;4.20;2.17;;;;;;;;;;7357191;19;20390;-76
2022/04/13 14:54:24;;;;;;;4.93;2.00;;;;;;;;;;7375187;19;20927;-77
2022/04/13 14:56:58;;;;;;;2.60;1.60;;;;;;;;;;7375955;19;20376;-77
2022/04/13 14:59:30;;;;;;;2.80;1.90;;;;;;;;;;7374630;19;21439;-76
2022/04/13 15:01:59;;;;;;;4.30;1.93;;;;;;;;;;7376607;19;20416;-77
2022/04/13 15:04:29;;;;;;;2.60;2.03;;;;;;;;;;7389696;19;20380;-76
2022/04/13 15:07:01;;;;;;;5.80;1.70;;;;;;;;;;7379214;19;20423;-75
2022/04/13 15:09:31;;;;;;;4.33;1.83;;;;;;;;;;7372958;19;20352;-74
2022/04/13 15:12:01;;;;;;;1.97;1.40;;;;;;;;;;7372840;19;20947;-75
2022/04/13 15:14:31;;;;;;;4.20;2.43;;;;;;;;;;7366999;19;20416;-73
2022/04/13 15:17:01;;;;;;;2.97;1.97;;;;;;;;;;7365685;19;20516;-74
2022/04/13 15:19:33;;;;;;;6.47;2.17;;;;;;;;;;7368348;19;20950;-73
2022/04/13 15:22:07;;;;;;;4.50;2.10;;;;;;;;;;7365599;19;20955;-74